createdAt,value
2023-03-24T00:04:34.523Z,59.84
2023-03-24T00:09:38.004Z,60.14
2023-03-24T00:14:54.508Z,60.38
2023-03-24T00:20:07.998Z,60.38
2023-03-24T00:25:23.815Z,60.27
2023-03-24T00:30:36.044Z,60.27
2023-03-24T00:35:45.739Z,60.04
2023-03-24T00:40:56.242Z,60.04
2023-03-24T00:46:02.062Z,60.34
2023-03-24T00:51:27.090Z,60.67
2023-03-24T00:56:35.900Z,60.07
2023-03-24T01:01:42.045Z,60.44
2023-03-24T01:06:45.057Z,60.90
2023-03-24T01:11:48.205Z,61.10
2023-03-24T01:16:53.072Z,61.27
2023-03-24T01:22:02.358Z,61.40
2023-03-24T01:27:04.974Z,61.38
2023-03-24T01:32:12.811Z,61.39
2023-03-24T01:37:23.413Z,61.37
2023-03-24T01:42:36.310Z,61.40
2023-03-24T01:47:50.533Z,61.38
2023-03-24T01:52:56.053Z,61.38
2023-03-24T01:58:03.547Z,61.35
2023-03-24T02:03:26.455Z,61.78
2023-03-24T02:08:42.624Z,62.15
2023-03-24T02:13:45.956Z,61.87
2023-03-24T02:19:25.032Z,62.34
2023-03-24T02:25:12.044Z,62.40
2023-03-24T02:31:43.505Z,62.48
2023-03-24T02:37:36.539Z,62.56
2023-03-24T02:43:45.719Z,62.19
2023-03-24T02:49:29.634Z,62.16
2023-03-24T02:54:56.257Z,62.83
2023-03-24T03:00:30.834Z,63.22
2023-03-24T03:05:42.487Z,64.16
2023-03-24T03:10:50.507Z,65.56
2023-03-24T03:16:00.624Z,65.88
2023-03-24T03:21:13.237Z,65.99
2023-03-24T03:26:27.420Z,66.41
2023-03-24T03:31:44.846Z,67.59
2023-03-24T03:36:57.851Z,68.69
2023-03-24T03:42:01.815Z,69.02
2023-03-24T03:47:16.320Z,68.70
2023-03-24T03:52:24.496Z,69.96
2023-03-24T03:57:29.967Z,70.07
2023-03-24T04:03:30.451Z,70.79
2023-03-24T04:09:23.779Z,71.68
2023-03-24T04:15:17.904Z,72.69
2023-03-24T04:21:33.871Z,73.80
2023-03-24T04:27:10.288Z,74.82
2023-03-24T04:32:43.732Z,75.72
2023-03-24T04:37:50.386Z,76.38
2023-03-24T04:43:06.314Z,74.54
2023-03-24T04:48:18.883Z,73.87
2023-03-24T04:54:17.068Z,77.07
2023-03-24T04:59:26.073Z,77.31
2023-03-24T05:04:40.142Z,78.25
2023-03-24T05:10:14.609Z,79.20
2023-03-24T05:15:27.531Z,79.66
2023-03-24T05:20:51.919Z,80.24
2023-03-24T05:25:58.807Z,80.89
2023-03-24T05:31:04.437Z,80.78
2023-03-24T05:36:44.816Z,81.25
2023-03-24T05:41:49.432Z,81.47
2023-03-24T05:46:54.287Z,81.99
2023-03-24T05:52:05.990Z,82.22
2023-03-24T05:57:25.984Z,81.96
2023-03-24T06:03:15.273Z,81.72
2023-03-24T06:08:54.624Z,81.79
2023-03-24T06:14:05.044Z,82.21
2023-03-24T06:19:52.894Z,82.49
2023-03-24T06:26:02.148Z,82.45
2023-03-24T06:31:14.951Z,82.00
2023-03-24T06:36:27.241Z,81.12
2023-03-24T06:41:35.941Z,80.70
2023-03-24T06:46:50.701Z,80.03
2023-03-24T06:51:56.103Z,79.62
2023-03-24T06:57:03.531Z,80.00
2023-03-24T07:02:28.316Z,80.21
2023-03-24T07:13:33.537Z,78.91
2023-03-24T07:18:43.936Z,78.57
2023-03-24T07:23:50.217Z,78.09
2023-03-24T07:28:57.299Z,77.60
2023-03-24T07:34:12.308Z,77.12
2023-03-24T07:39:15.408Z,76.67
2023-03-24T07:44:27.799Z,76.17
2023-03-24T07:49:36.292Z,75.31
2023-03-24T07:54:49.248Z,74.24
2023-03-24T08:00:18.206Z,74.26
2023-03-24T08:05:30.784Z,74.06
2023-03-24T08:10:59.883Z,74.29
2023-03-24T08:16:22.433Z,73.52
2023-03-24T08:21:27.577Z,72.61
2023-03-24T08:26:31.167Z,70.87
2023-03-24T08:31:39.570Z,68.33
2023-03-24T08:36:44.460Z,67.23
2023-03-24T08:41:50.546Z,66.60
2023-03-24T08:47:08.558Z,65.45
2023-03-24T08:52:28.722Z,64.08
2023-03-24T08:57:31.830Z,64.53
2023-03-24T09:02:47.087Z,64.78
2023-03-24T09:08:03.317Z,63.58
2023-03-24T09:13:36.185Z,64.09
2023-03-24T09:19:23.421Z,64.20
2023-03-24T09:24:55.460Z,61.33
2023-03-24T09:30:09.983Z,61.93
2023-03-24T09:35:17.872Z,61.04
2023-03-24T09:40:28.138Z,59.60
2023-03-24T09:45:57.085Z,61.22
2023-03-24T09:51:20.826Z,60.45
2023-03-24T09:56:37.564Z,61.57
2023-03-24T10:01:54.253Z,59.34
2023-03-24T10:08:00.094Z,58.81
2023-03-24T10:13:20.396Z,58.97
2023-03-24T10:18:39.512Z,58.07
2023-03-24T10:24:34.953Z,57.56
2023-03-24T10:29:59.106Z,54.88
2023-03-24T10:35:37.709Z,55.23
2023-03-24T10:40:45.297Z,55.14
2023-03-24T10:46:08.599Z,54.55
2023-03-24T10:51:19.523Z,52.75
2023-03-24T10:57:06.773Z,52.77
2023-03-24T11:02:38.212Z,53.28
2023-03-24T11:07:47.246Z,53.78
2023-03-24T11:12:53.445Z,52.05
2023-03-24T11:18:12.504Z,51.01
2023-03-24T11:23:46.283Z,50.26
2023-03-24T11:29:30.450Z,50.23
2023-03-24T11:35:01.004Z,49.91
2023-03-24T11:40:59.604Z,50.25
2023-03-24T11:46:26.812Z,50.67
2023-03-24T11:51:36.243Z,51.07
2023-03-24T11:57:00.814Z,51.09
2023-03-24T12:02:19.426Z,50.81
2023-03-24T12:07:46.687Z,51.36
2023-03-24T12:13:19.041Z,51.63
2023-03-24T12:19:00.357Z,52.29
2023-03-24T12:24:30.880Z,52.49
2023-03-24T12:30:02.676Z,52.92
2023-03-24T12:35:39.708Z,53.08
2023-03-24T12:41:02.316Z,53.68
2023-03-24T12:46:52.540Z,53.92
2023-03-24T12:52:32.217Z,53.99
2023-03-24T12:57:46.052Z,53.78
2023-03-24T13:02:56.522Z,53.98
2023-03-24T13:08:13.700Z,53.98
2023-03-24T13:13:35.346Z,53.94
2023-03-24T13:18:48.331Z,54.22
2023-03-24T13:24:14.297Z,53.95
2023-03-24T13:29:49.063Z,53.69
2023-03-24T13:35:20.835Z,52.99
2023-03-24T13:40:29.779Z,51.38
2023-03-24T13:45:57.137Z,48.02
2023-03-24T13:51:23.124Z,47.77
2023-03-24T13:56:33.686Z,47.36
2023-03-24T14:01:43.335Z,47.04
2023-03-24T14:06:50.632Z,47.10
2023-03-24T14:12:37.439Z,47.53
2023-03-24T14:18:39.654Z,47.04
2023-03-24T14:24:18.655Z,47.24
2023-03-24T14:29:40.277Z,47.16
2023-03-24T14:34:58.084Z,47.21
2023-03-24T14:40:09.373Z,47.39
2023-03-24T14:45:52.148Z,47.41
2023-03-24T14:50:59.169Z,47.56
2023-03-24T14:56:02.223Z,47.36
2023-03-24T15:01:19.105Z,47.40
2023-03-24T15:06:26.590Z,47.59
2023-03-24T15:11:35.294Z,47.84
2023-03-24T15:16:38.639Z,48.37
2023-03-24T15:21:49.948Z,48.66
2023-03-24T15:27:07.286Z,49.17
2023-03-24T15:32:24.250Z,50.34
2023-03-24T15:37:41.294Z,51.52
2023-03-24T15:42:49.089Z,51.23
2023-03-24T15:47:55.853Z,52.63
2023-03-24T15:53:16.716Z,54.23
2023-03-24T15:58:28.364Z,56.30
2023-03-24T16:03:35.218Z,58.00
2023-03-24T16:08:42.309Z,58.92
2023-03-24T16:13:45.925Z,59.78
2023-03-24T16:18:51.708Z,60.47
2023-03-24T16:24:00.610Z,61.70
2023-03-24T16:29:38.519Z,62.48
2023-03-24T16:34:58.663Z,62.54
2023-03-24T16:40:23.091Z,63.72
2023-03-24T16:45:25.803Z,65.14
2023-03-24T16:50:38.166Z,65.54
2023-03-24T16:56:00.304Z,66.12
2023-03-24T17:01:26.527Z,67.00
2023-03-24T17:06:33.149Z,68.24
2023-03-24T17:12:05.229Z,68.57
2023-03-24T17:17:14.538Z,69.37
2023-03-24T17:22:21.068Z,69.28
2023-03-24T17:27:24.761Z,69.48
2023-03-24T17:32:32.257Z,69.77
2023-03-24T17:37:46.272Z,69.15
2023-03-24T17:42:50.387Z,68.65
2023-03-24T17:48:01.354Z,68.32
2023-03-24T17:53:07.463Z,68.32
2023-03-24T17:58:10.668Z,68.24
2023-03-24T18:03:18.261Z,68.25
2023-03-24T18:08:26.458Z,68.64
2023-03-24T18:13:38.686Z,68.84
2023-03-24T18:18:45.850Z,69.25
2023-03-24T18:23:57.152Z,69.48
2023-03-24T18:29:07.585Z,69.70
2023-03-24T18:34:12.444Z,69.98
2023-03-24T18:39:26.398Z,70.56
2023-03-24T18:44:32.129Z,70.80
2023-03-24T18:49:35.353Z,71.06
2023-03-24T18:54:43.447Z,71.44
2023-03-24T19:00:00.436Z,71.51
2023-03-24T19:05:10.021Z,71.41
2023-03-24T19:10:17.845Z,71.43
2023-03-24T19:15:20.585Z,71.50
2023-03-24T19:20:23.371Z,71.69
2023-03-24T19:25:26.567Z,71.97
2023-03-24T19:30:29.587Z,72.21
2023-03-24T19:35:32.611Z,72.19
2023-03-24T19:40:35.163Z,72.75
2023-03-24T19:45:43.473Z,72.91
2023-03-24T19:50:49.817Z,73.02
2023-03-24T19:55:58.394Z,73.32
2023-03-24T20:01:06.649Z,73.18
2023-03-24T20:06:09.752Z,73.15
2023-03-24T20:11:13.387Z,73.57
2023-03-24T20:16:18.294Z,74.00
2023-03-24T20:21:23.487Z,74.18
2023-03-24T20:26:39.497Z,74.23
2023-03-24T20:31:43.874Z,74.13
2023-03-24T20:36:46.984Z,74.42
2023-03-24T20:41:49.847Z,74.84
2023-03-24T20:46:57.549Z,74.97
2023-03-24T20:52:01.228Z,75.15
2023-03-24T20:57:06.319Z,75.03
2023-03-24T21:02:11.344Z,74.82
2023-03-24T21:07:14.858Z,74.70
2023-03-24T21:12:17.207Z,74.51
2023-03-24T21:17:36.403Z,74.25
2023-03-24T21:22:55.593Z,74.22
2023-03-24T21:27:58.659Z,74.17
2023-03-24T21:33:05.086Z,74.16
2023-03-24T21:38:16.782Z,74.01
2023-03-24T21:43:19.685Z,73.90
2023-03-24T21:48:26.711Z,73.89
2023-03-24T21:53:42.903Z,73.95
2023-03-24T21:58:46.718Z,74.26
2023-03-24T22:03:50.965Z,74.34
2023-03-24T22:09:06.572Z,74.60
2023-03-24T22:14:13.314Z,74.77
2023-03-24T22:19:16.310Z,74.90
2023-03-24T22:24:19.943Z,74.63
2023-03-24T22:29:29.263Z,74.24
2023-03-24T22:34:34.689Z,74.06
2023-03-24T22:39:45.173Z,74.06
2023-03-24T22:44:51.289Z,74.19
2023-03-24T22:49:57.148Z,74.07
2023-03-24T22:55:01.949Z,73.95
2023-03-24T23:00:06.826Z,74.32
2023-03-24T23:05:18.134Z,74.19
2023-03-24T23:10:21.004Z,73.82
2023-03-24T23:15:26.366Z,73.54
2023-03-24T23:20:29.946Z,73.92
2023-03-24T23:25:32.794Z,74.07
2023-03-24T23:30:36.208Z,74.30
2023-03-24T23:35:38.983Z,74.43
2023-03-24T23:40:42.092Z,74.34
2023-03-24T23:45:46.674Z,74.45
2023-03-24T23:51:17.253Z,74.47
2023-03-24T23:56:21.805Z,74.44
